Temp: 17.2°C   Baro: 1015.9mb
  Wind: 0.0mph   Dir: SSW (207°)
  Rain: 0.6mm (0.0mm/hr)
  Solar: 350W/m2  Hum: 69%
 
Bath Spa Weather Station Historical Data
Daily Summary for June 5, 2019 Units:  Both    English   Metric
Daily Weekly Monthly Yearly Custom
  High: Low: Average:
Temperature: 63.7 °F /  17.6 °C 48.9 °F /  9.4 °C 55.6 °F /  13.1 °C
Dew Point: 48.7 °F /  9.3 °C 42.8 °F /  6 °C 45.9 °F /  7.7 °C
Humidity: 85% 55.1% 70%
Wind Speed: 8.5mph /  13.7km/h - 3.6mph /  5.8km/h
Wind Gust: 17mph /  27.4km/h - -
Wind- - NW
Pressure: 30.36 in /  1028 hPa 30.13 in /  1020.2 hPa -
Precipitation: 0.00 in /  0 mm    
Historical Graphs
 
 
Tabular Data for June 5, 2019
Time Temperature Dew Point Pressure Wind Wind Speed Wind Gust Humidity Rainfall Rate (Hourly) solar
00:04 54.9 °F /  12.7 °C 47.8 °F /  8.8 °C 30.13in /  1020.2hPa WNW 4.7mph /  7.6km/h 11mph /  17.7km/h 77% 0.00in /  0mm 0 W/m2
00:09 54.8 °F /  12.7 °C 47.7 °F /  8.7 °C 30.13in /  1020.2hPa NW 4.2mph /  6.8km/h 8mph /  12.9km/h 77% 0.00in /  0mm 0 W/m2
00:14 54.6 °F /  12.6 °C 47.6 °F /  8.7 °C 30.14in /  1020.5hPa WNW 5.3mph /  8.5km/h 12mph /  19.3km/h 77% 0.00in /  0mm 0 W/m2
00:19 54.5 °F /  12.5 °C 47.5 °F /  8.6 °C 30.14in /  1020.5hPa WNW 3.4mph /  5.5km/h 12mph /  19.3km/h 77% 0.00in /  0mm 0 W/m2
00:24 54.5 °F /  12.5 °C 47.5 °F /  8.6 °C 30.14in /  1020.5hPa WNW 4mph /  6.4km/h 11mph /  17.7km/h 77% 0.00in /  0mm 0 W/m2
00:29 54.5 °F /  12.5 °C 47.5 °F /  8.6 °C 30.14in /  1020.5hPa West 3.3mph /  5.3km/h 8mph /  12.9km/h 77% 0.00in /  0mm 0 W/m2
00:34 54.4 °F /  12.4 °C 47.4 °F /  8.6 °C 30.14in /  1020.5hPa WNW 4.7mph /  7.6km/h 9mph /  14.5km/h 77% 0.00in /  0mm 0 W/m2
00:39 54.4 °F /  12.4 °C 47.4 °F /  8.6 °C 30.14in /  1020.5hPa WNW 1.2mph /  1.9km/h 8mph /  12.9km/h 77% 0.00in /  0mm 0 W/m2
00:44 54.3 °F /  12.4 °C 47.3 °F /  8.5 °C 30.14in /  1020.5hPa NW 3.7mph /  6km/h 9mph /  14.5km/h 77% 0.00in /  0mm 0 W/m2
00:49 54.3 °F /  12.4 °C 47.3 °F /  8.5 °C 30.15in /  1020.9hPa WNW 4mph /  6.4km/h 9mph /  14.5km/h 77% 0.00in /  0mm 0 W/m2
00:54 54.3 °F /  12.4 °C 47.3 °F /  8.5 °C 30.15in /  1020.9hPa NW 3.1mph /  5km/h 6mph /  9.7km/h 77% 0.00in /  0mm 0 W/m2
00:59 54.3 °F /  12.4 °C 47.3 °F /  8.5 °C 30.15in /  1020.9hPa WNW 4mph /  6.4km/h 9mph /  14.5km/h 77% 0.00in /  0mm 0 W/m2
01:04 54.3 °F /  12.4 °C 47 °F /  8.3 °C 30.15in /  1020.9hPa NW 5mph /  8km/h 10mph /  16.1km/h 76.2% 0.00in /  0mm 0 W/m2
01:09 54.3 °F /  12.4 °C 46.9 °F /  8.3 °C 30.15in /  1020.9hPa WNW 3.5mph /  5.6km/h 8mph /  12.9km/h 76% 0.00in /  0mm 0 W/m2
01:14 54.3 °F /  12.4 °C 46.9 °F /  8.3 °C 30.16in /  1021.2hPa WNW 4.7mph /  7.6km/h 9mph /  14.5km/h 75.9% 0.00in /  0mm 0 W/m2
01:19 54.3 °F /  12.4 °C 46.6 °F /  8.1 °C 30.16in /  1021.2hPa West 3.6mph /  5.8km/h 7mph /  11.3km/h 75% 0.00in /  0mm 0 W/m2
01:24 54.3 °F /  12.4 °C 46.6 °F /  8.1 °C 30.16in /  1021.2hPa WNW 5.6mph /  9km/h 11mph /  17.7km/h 75% 0.00in /  0mm 0 W/m2
01:29 54.3 °F /  12.4 °C 46.6 °F /  8.1 °C 30.16in /  1021.2hPa WNW 3.3mph /  5.3km/h 9mph /  14.5km/h 75% 0.00in /  0mm 0 W/m2
01:34 54.1 °F /  12.3 °C 46.4 °F /  8 °C 30.16in /  1021.2hPa West 3.6mph /  5.8km/h 7mph /  11.3km/h 75% 0.00in /  0mm 0 W/m2
01:39 54.1 °F /  12.3 °C 46.3 °F /  7.9 °C 30.16in /  1021.2hPa WNW 4.1mph /  6.6km/h 9mph /  14.5km/h 75% 0.00in /  0mm 0 W/m2
01:44 54 °F /  12.2 °C 46.2 °F /  7.9 °C 30.16in /  1021.2hPa WNW 4.8mph /  7.7km/h 11mph /  17.7km/h 75% 0.00in /  0mm 0 W/m2
01:49 54 °F /  12.2 °C 46.2 °F /  7.9 °C 30.16in /  1021.2hPa WNW 5.8mph /  9.3km/h 13mph /  20.9km/h 75% 0.00in /  0mm 0 W/m2
01:54 54 °F /  12.2 °C 46.3 °F /  7.9 °C 30.16in /  1021.2hPa WNW 2.6mph /  4.2km/h 8mph /  12.9km/h 75.4% 0.00in /  0mm 0 W/m2
01:59 53.8 °F /  12.1 °C 46.2 °F /  7.9 °C 30.17in /  1021.6hPa WNW 2.8mph /  4.5km/h 8mph /  12.9km/h 75.6% 0.00in /  0mm 0 W/m2
02:04 53.8 °F /  12.1 °C 46.4 °F /  8 °C 30.17in /  1021.6hPa WNW 2mph /  3.2km/h 8mph /  12.9km/h 76% 0.00in /  0mm 0 W/m2
02:09 53.8 °F /  12.1 °C 46.4 °F /  8 °C 30.17in /  1021.6hPa WNW 3.6mph /  5.8km/h 8mph /  12.9km/h 76% 0.00in /  0mm 0 W/m2
02:14 53.6 °F /  12 °C 46.2 °F /  7.9 °C 30.17in /  1021.6hPa WNW 5.5mph /  8.9km/h 10mph /  16.1km/h 76% 0.00in /  0mm 0 W/m2
02:19 53.7 °F /  12.1 °C 46 °F /  7.8 °C 30.17in /  1021.6hPa WNW 4.3mph /  6.9km/h 10mph /  16.1km/h 75.1% 0.00in /  0mm 0 W/m2
02:24 53.6 °F /  12 °C 46 °F /  7.8 °C 30.17in /  1021.6hPa West 4.5mph /  7.2km/h 10mph /  16.1km/h 75.3% 0.00in /  0mm 0 W/m2
02:29 53.6 °F /  12 °C 46.2 °F /  7.9 °C 30.17in /  1021.6hPa WNW 6.4mph /  10.3km/h 13mph /  20.9km/h 75.9% 0.00in /  0mm 0 W/m2
02:34 53.6 °F /  12 °C 45.9 °F /  7.7 °C 30.17in /  1021.6hPa WNW 5.7mph /  9.2km/h 13mph /  20.9km/h 75% 0.00in /  0mm 0 W/m2
02:39 53.6 °F /  12 °C 46 °F /  7.8 °C 30.18in /  1021.9hPa WNW 5.3mph /  8.5km/h 11mph /  17.7km/h 75.2% 0.00in /  0mm 0 W/m2
02:44 53.6 °F /  12 °C 46.2 °F /  7.9 °C 30.18in /  1021.9hPa NW 4.5mph /  7.2km/h 10mph /  16.1km/h 76% 0.00in /  0mm 0 W/m2
02:49 53.6 °F /  12 °C 46.2 °F /  7.9 °C 30.18in /  1021.9hPa NW 4mph /  6.4km/h 9mph /  14.5km/h 76% 0.00in /  0mm 0 W/m2
02:54 53.5 °F /  11.9 °C 46.1 °F /  7.8 °C 30.18in /  1021.9hPa NW 5.7mph /  9.2km/h 11mph /  17.7km/h 76% 0.00in /  0mm 0 W/m2
02:59 53.4 °F /  11.9 °C 46 °F /  7.8 °C 30.18in /  1021.9hPa NW 8.3mph /  13.4km/h 14mph /  22.5km/h 76% 0.00in /  0mm 0 W/m2
03:04 53.4 °F /  11.9 °C 46 °F /  7.8 °C 30.19in /  1022.2hPa NW 6.5mph /  10.5km/h 14mph /  22.5km/h 76% 0.00in /  0mm 0 W/m2
03:09 53.4 °F /  11.9 °C 46 °F /  7.8 °C 30.19in /  1022.2hPa NW 4.8mph /  7.7km/h 12mph /  19.3km/h 76% 0.00in /  0mm 0 W/m2
03:14 53.3 °F /  11.8 °C 46 °F /  7.8 °C 30.19in /  1022.2hPa NW 5.5mph /  8.9km/h 12mph /  19.3km/h 76% 0.00in /  0mm 0 W/m2
03:19 53.2 °F /  11.8 °C 45.9 °F /  7.7 °C 30.19in /  1022.2hPa WNW 3.4mph /  5.5km/h 8mph /  12.9km/h 76% 0.00in /  0mm 0 W/m2
03:24 53.2 °F /  11.8 °C 45.9 °F /  7.7 °C 30.19in /  1022.2hPa NW 3.9mph /  6.3km/h 8mph /  12.9km/h 76% 0.00in /  0mm 0 W/m2
03:29 53.1 °F /  11.7 °C 45.7 °F /  7.6 °C 30.19in /  1022.2hPa NW 4.6mph /  7.4km/h 10mph /  16.1km/h 76% 0.00in /  0mm 0 W/m2
03:34 53.1 °F /  11.7 °C 45.7 °F /  7.6 °C 30.19in /  1022.2hPa NW 2.7mph /  4.3km/h 9mph /  14.5km/h 76% 0.00in /  0mm 0 W/m2
03:39 53 °F /  11.7 °C 45.7 °F /  7.6 °C 30.20in /  1022.6hPa WNW 4.3mph /  6.9km/h 9mph /  14.5km/h 76.2% 0.00in /  0mm 0 W/m2
03:44 52.9 °F /  11.6 °C 45.9 °F /  7.7 °C 30.20in /  1022.6hPa NNW 2.8mph /  4.5km/h 8mph /  12.9km/h 77% 0.00in /  0mm 0 W/m2
03:49 52.7 °F /  11.5 °C 45.5 °F /  7.5 °C 30.19in /  1022.2hPa NW 1mph /  1.6km/h 6mph /  9.7km/h 76.5% 0.00in /  0mm 0 W/m2
03:54 52.7 °F /  11.5 °C 45.7 °F /  7.6 °C 30.20in /  1022.6hPa WNW 2.2mph /  3.5km/h 8mph /  12.9km/h 77% 0.00in /  0mm 0 W/m2
03:59 52.5 °F /  11.4 °C 45.5 °F /  7.5 °C 30.20in /  1022.6hPa WNW 3.7mph /  6km/h 11mph /  17.7km/h 77% 0.00in /  0mm 0 W/m2
04:04 52.5 °F /  11.4 °C 45.5 °F /  7.5 °C 30.21in /  1022.9hPa WNW 2.7mph /  4.3km/h 9mph /  14.5km/h 77% 0.00in /  0mm 0 W/m2
04:09 52.5 °F /  11.4 °C 45.3 °F /  7.4 °C 30.20in /  1022.6hPa NW 3.2mph /  5.1km/h 9mph /  14.5km/h 76.4% 0.00in /  0mm 0 W/m2
04:14 52.6 °F /  11.4 °C 45.2 °F /  7.3 °C 30.20in /  1022.6hPa WNW 2.3mph /  3.7km/h 6mph /  9.7km/h 76% 0.00in /  0mm 0 W/m2
04:19 52.5 °F /  11.4 °C 45.1 °F /  7.3 °C 30.21in /  1022.9hPa NW 3.7mph /  6km/h 7mph /  11.3km/h 76% 0.00in /  0mm 0 W/m2
04:24 52.5 °F /  11.4 °C 45.1 °F /  7.3 °C 30.21in /  1022.9hPa NW 4mph /  6.4km/h 7mph /  11.3km/h 76% 0.00in /  0mm 0 W/m2
04:29 52.4 °F /  11.3 °C 45.1 °F /  7.3 °C 30.21in /  1022.9hPa NW 3.9mph /  6.3km/h 9mph /  14.5km/h 76% 0.00in /  0mm 0 W/m2
04:34 52.3 °F /  11.3 °C 45 °F /  7.2 °C 30.21in /  1022.9hPa NW 2.3mph /  3.7km/h 8mph /  12.9km/h 76% 0.00in /  0mm 0 W/m2
04:39 52.3 °F /  11.3 °C 44.9 °F /  7.2 °C 30.21in /  1022.9hPa WNW 2.7mph /  4.3km/h 8mph /  12.9km/h 76.1% 0.00in /  0mm 0 W/m2
04:44 52.2 °F /  11.2 °C 45.1 °F /  7.3 °C 30.22in /  1023.2hPa WNW 3.5mph /  5.6km/h 8mph /  12.9km/h 77% 0.00in /  0mm 0 W/m2
04:49 52.1 °F /  11.2 °C 45 °F /  7.2 °C 30.22in /  1023.2hPa NW 3.2mph /  5.1km/h 9mph /  14.5km/h 77% 0.00in /  0mm 0 W/m2
04:54 52 °F /  11.1 °C 45 °F /  7.2 °C 30.22in /  1023.2hPa NW 5.2mph /  8.4km/h 11mph /  17.7km/h 77% 0.00in /  0mm 0 W/m2
04:59 52 °F /  11.1 °C 45 °F /  7.2 °C 30.22in /  1023.2hPa NW 4.1mph /  6.6km/h 11mph /  17.7km/h 77% 0.00in /  0mm 0 W/m2
05:04 51.9 °F /  11.1 °C 44.9 °F /  7.2 °C 30.22in /  1023.2hPa NW 5.1mph /  8.2km/h 11mph /  17.7km/h 77% 0.00in /  0mm 0 W/m2
05:09 51.8 °F /  11 °C 44.8 °F /  7.1 °C 30.22in /  1023.2hPa WNW 4.5mph /  7.2km/h 11mph /  17.7km/h 77% 0.00in /  0mm 0 W/m2
05:14 51.8 °F /  11 °C 44.8 °F /  7.1 °C 30.22in /  1023.2hPa NW 4.8mph /  7.7km/h 10mph /  16.1km/h 77% 0.00in /  0mm 0 W/m2
05:19 51.7 °F /  10.9 °C 44.7 °F /  7.1 °C 30.23in /  1023.6hPa NW 6.2mph /  10km/h 10mph /  16.1km/h 77% 0.00in /  0mm 0 W/m2
05:24 51.6 °F /  10.9 °C 44.6 °F /  7 °C 30.23in /  1023.6hPa NW 6.3mph /  10.1km/h 12mph /  19.3km/h 77% 0.00in /  0mm 0 W/m2
05:29 51.6 °F /  10.9 °C 44.6 °F /  7 °C 30.23in /  1023.6hPa NW 6mph /  9.7km/h 14mph /  22.5km/h 77% 0.00in /  0mm 0 W/m2
05:34 51.6 °F /  10.9 °C 44.6 °F /  7 °C 30.23in /  1023.6hPa NW 5.8mph /  9.3km/h 14mph /  22.5km/h 77% 0.00in /  0mm 0 W/m2
05:39 51.7 °F /  10.9 °C 44.7 °F /  7.1 °C 30.24in /  1023.9hPa NW 5.3mph /  8.5km/h 12mph /  19.3km/h 77% 0.00in /  0mm 0 W/m2
05:44 51.8 °F /  11 °C 44.6 °F /  7 °C 30.24in /  1023.9hPa NW 7.8mph /  12.6km/h 13mph /  20.9km/h 76.5% 0.00in /  0mm 0 W/m2
05:49 51.8 °F /  11 °C 44.4 °F /  6.9 °C 30.25in /  1024.3hPa NW 6mph /  9.7km/h 13mph /  20.9km/h 76% 0.00in /  0mm 0 W/m2
05:54 51.8 °F /  11 °C 44.4 °F /  6.9 °C 30.25in /  1024.3hPa NW 5mph /  8km/h 12mph /  19.3km/h 76% 0.00in /  0mm 0 W/m2
05:59 51.7 °F /  10.9 °C 44.3 °F /  6.8 °C 30.25in /  1024.3hPa NNW 6.7mph /  10.8km/h 13mph /  20.9km/h 76% 0.00in /  0mm 0 W/m2
06:04 51.7 °F /  10.9 °C 44.1 °F /  6.7 °C 30.25in /  1024.3hPa NNW 5.7mph /  9.2km/h 13mph /  20.9km/h 75.5% 0.00in /  0mm 0 W/m2
06:09 51.6 °F /  10.9 °C 43.9 °F /  6.6 °C 30.26in /  1024.6hPa NW 4.1mph /  6.6km/h 13mph /  20.9km/h 75% 0.00in /  0mm 0 W/m2
06:14 51.5 °F /  10.8 °C 43.8 °F /  6.6 °C 30.26in /  1024.6hPa NNW 4.2mph /  6.8km/h 13mph /  20.9km/h 75% 0.00in /  0mm 0 W/m2
06:19 51.3 °F /  10.7 °C 43.9 °F /  6.6 °C 30.26in /  1024.6hPa NNW 2.8mph /  4.5km/h 9mph /  14.5km/h 76% 0.00in /  0mm 0 W/m2
06:24 51 °F /  10.6 °C 43.6 °F /  6.4 °C 30.27in /  1024.9hPa NW 2.8mph /  4.5km/h 7mph /  11.3km/h 76% 0.00in /  0mm 0 W/m2
06:29 50.7 °F /  10.4 °C 43.5 °F /  6.4 °C 30.27in /  1024.9hPa NW 3.5mph /  5.6km/h 8mph /  12.9km/h 76% 0.00in /  0mm 0 W/m2
06:34 50.6 °F /  10.3 °C 43.5 °F /  6.4 °C 30.27in /  1024.9hPa NW 1.2mph /  1.9km/h 3mph /  4.8km/h 76.7% 0.00in /  0mm 5 W/m2
06:39 50.4 °F /  10.2 °C 43.4 °F /  6.3 °C 30.27in /  1024.9hPa NW 2.7mph /  4.3km/h 6mph /  9.7km/h 77% 0.00in /  0mm 7 W/m2
06:44 50.4 °F /  10.2 °C 43.3 °F /  6.3 °C 30.27in /  1024.9hPa WNW 0.9mph /  1.4km/h 6mph /  9.7km/h 77% 0.00in /  0mm 11 W/m2
06:49 50.1 °F /  10.1 °C 43.2 °F /  6.2 °C 30.27in /  1024.9hPa WNW 1.2mph /  1.9km/h 6mph /  9.7km/h 77% 0.00in /  0mm 14 W/m2
06:54 49.9 °F /  9.9 °C 43.2 °F /  6.2 °C 30.27in /  1024.9hPa WNW 1.6mph /  2.6km/h 7mph /  11.3km/h 77.6% 0.00in /  0mm 18 W/m2
06:59 49.8 °F /  9.9 °C 43.2 °F /  6.2 °C 30.28in /  1025.3hPa West 3.5mph /  5.6km/h 7mph /  11.3km/h 78% 0.00in /  0mm 19 W/m2
07:04 49.8 °F /  9.9 °C 43.2 °F /  6.2 °C 30.28in /  1025.3hPa West 2.1mph /  3.4km/h 6mph /  9.7km/h 78% 0.00in /  0mm 23 W/m2
07:09 49.8 °F /  9.9 °C 43.2 °F /  6.2 °C 30.28in /  1025.3hPa West 1.7mph /  2.7km/h 7mph /  11.3km/h 78% 0.00in /  0mm 25 W/m2
07:14 49.8 °F /  9.9 °C 43.2 °F /  6.2 °C 30.28in /  1025.3hPa West 0.3mph /  0.5km/h 4mph /  6.4km/h 78% 0.00in /  0mm 28 W/m2
07:19 49.9 °F /  9.9 °C 43.2 °F /  6.2 °C 30.28in /  1025.3hPa Calm   1mph /  1.6km/h 77.7% 0.00in /  0mm 32 W/m2
07:24 50 °F /  10 °C 43.3 °F /  6.3 °C 30.29in /  1025.6hPa West 0.6mph /  1km/h 3mph /  4.8km/h 77.8% 0.00in /  0mm 33 W/m2
07:29 49.8 °F /  9.9 °C 43.2 °F /  6.2 °C 30.29in /  1025.6hPa West 0.5mph /  0.8km/h 4mph /  6.4km/h 78% 0.00in /  0mm 35 W/m2
07:34 50 °F /  10 °C 43.3 °F /  6.3 °C 30.29in /  1025.6hPa Calm   1mph /  1.6km/h 77.8% 0.00in /  0mm 37 W/m2
07:39 50.1 °F /  10.1 °C 43.3 °F /  6.3 °C 30.29in /  1025.6hPa West 0.1mph /  0.2km/h 1mph /  1.6km/h 77% 0.00in /  0mm 39 W/m2
07:44 50.4 °F /  10.2 °C 43.7 °F /  6.5 °C 30.29in /  1025.6hPa Calm   1mph /  1.6km/h 78% 0.00in /  0mm 42 W/m2
07:49 50.4 °F /  10.2 °C 43.7 °F /  6.5 °C 30.29in /  1025.6hPa West 1.1mph /  1.8km/h 3mph /  4.8km/h 78% 0.00in /  0mm 49 W/m2
07:54 50.5 °F /  10.3 °C 43.3 °F /  6.3 °C 30.30in /  1026hPa West 3.4mph /  5.5km/h 6mph /  9.7km/h 76.5% 0.00in /  0mm 62 W/m2
07:59 50.9 °F /  10.5 °C 43.2 °F /  6.2 °C 30.30in /  1026hPa West 0.5mph /  0.8km/h 6mph /  9.7km/h 74.5% 0.00in /  0mm 74 W/m2
08:04 51.4 °F /  10.8 °C 43.4 °F /  6.3 °C 30.30in /  1026hPa West 1.9mph /  3.1km/h 5mph /  8km/h 74% 0.00in /  0mm 84 W/m2
08:09 51.5 °F /  10.8 °C 43.4 °F /  6.3 °C 30.30in /  1026hPa WNW 0.1mph /  0.2km/h 5mph /  8km/h 73.6% 0.00in /  0mm 91 W/m2
08:14 51.6 °F /  10.9 °C 43.2 °F /  6.2 °C 30.31in /  1026.3hPa NW 4.1mph /  6.6km/h 8mph /  12.9km/h 72.7% 0.00in /  0mm 111 W/m2
08:19 51.7 °F /  10.9 °C 43.2 °F /  6.2 °C 30.31in /  1026.3hPa NW 3.1mph /  5km/h 8mph /  12.9km/h 72.6% 0.00in /  0mm 130 W/m2
08:24 51.9 °F /  11.1 °C 42.8 °F /  6 °C 30.31in /  1026.3hPa NW 3mph /  4.8km/h 8mph /  12.9km/h 71.1% 0.00in /  0mm 148 W/m2
08:29 52.2 °F /  11.2 °C 42.9 °F /  6.1 °C 30.31in /  1026.3hPa NW 3.6mph /  5.8km/h 7mph /  11.3km/h 70.8% 0.00in /  0mm 165 W/m2
08:34 52.4 °F /  11.3 °C 43 °F /  6.1 °C 30.31in /  1026.3hPa WNW 2.8mph /  4.5km/h 7mph /  11.3km/h 70.3% 0.00in /  0mm 179 W/m2
08:39 52.6 °F /  11.4 °C 43.1 °F /  6.2 °C 30.32in /  1026.6hPa NW 5.2mph /  8.4km/h 11mph /  17.7km/h 70% 0.00in /  0mm 195 W/m2
08:44 53 °F /  11.7 °C 43.4 °F /  6.3 °C 30.32in /  1026.6hPa WNW 1.6mph /  2.6km/h 11mph /  17.7km/h 69.8% 0.00in /  0mm 209 W/m2
08:49 53.5 °F /  11.9 °C 43.8 °F /  6.6 °C 30.32in /  1026.6hPa WNW 0.9mph /  1.4km/h 6mph /  9.7km/h 69.7% 0.00in /  0mm 229 W/m2
08:54 53.9 °F /  12.2 °C 43.9 °F /  6.6 °C 30.32in /  1026.6hPa WNW 2.9mph /  4.7km/h 10mph /  16.1km/h 68.9% 0.00in /  0mm 244 W/m2
08:59 53.8 °F /  12.1 °C 43.8 °F /  6.6 °C 30.32in /  1026.6hPa WNW 3.9mph /  6.3km/h 9mph /  14.5km/h 68.6% 0.00in /  0mm 260 W/m2
09:04 53.7 °F /  12.1 °C 43.4 °F /  6.3 °C 30.32in /  1026.6hPa NW 4mph /  6.4km/h 9mph /  14.5km/h 68% 0.00in /  0mm 279 W/m2
09:09 53.9 °F /  12.2 °C 44 °F /  6.7 °C 30.32in /  1026.6hPa NW 4mph /  6.4km/h 10mph /  16.1km/h 69% 0.00in /  0mm 295 W/m2
09:14 54 °F /  12.2 °C 43.7 °F /  6.5 °C 30.32in /  1026.6hPa NW 7.1mph /  11.4km/h 14mph /  22.5km/h 68% 0.00in /  0mm 336 W/m2
09:19 54 °F /  12.2 °C 44 °F /  6.7 °C 30.32in /  1026.6hPa NW 6.4mph /  10.3km/h 14mph /  22.5km/h 68.5% 0.00in /  0mm 343 W/m2
09:24 54.4 °F /  12.4 °C 44.1 °F /  6.7 °C 30.33in /  1027hPa NW 3mph /  4.8km/h 9mph /  14.5km/h 68% 0.00in /  0mm 378 W/m2
09:29 55 °F /  12.8 °C 44.2 °F /  6.8 °C 30.33in /  1027hPa NW 7.4mph /  11.9km/h 13mph /  20.9km/h 67.2% 0.00in /  0mm 387 W/m2
09:34 55 °F /  12.8 °C 44.3 °F /  6.8 °C 30.32in /  1026.6hPa NNW 4.7mph /  7.6km/h 10mph /  16.1km/h 67.2% 0.00in /  0mm 415 W/m2
09:39 55.5 °F /  13.1 °C 44.7 °F /  7.1 °C 30.33in /  1027hPa NNW 6.7mph /  10.8km/h 13mph /  20.9km/h 67.2% 0.00in /  0mm 418 W/m2
09:44 55.3 °F /  12.9 °C 44.2 °F /  6.8 °C 30.33in /  1027hPa NNW 7.7mph /  12.4km/h 14mph /  22.5km/h 66% 0.00in /  0mm 425 W/m2
09:49 55.2 °F /  12.9 °C 44.3 °F /  6.8 °C 30.32in /  1026.6hPa NW 4.2mph /  6.8km/h 14mph /  22.5km/h 66.8% 0.00in /  0mm 461 W/m2
09:54 55.5 °F /  13.1 °C 44.4 °F /  6.9 °C 30.33in /  1027hPa NW 7.4mph /  11.9km/h 13mph /  20.9km/h 66.2% 0.00in /  0mm 436 W/m2
09:59 55.2 °F /  12.9 °C 44.1 °F /  6.7 °C 30.33in /  1027hPa NW 6.2mph /  10km/h 15mph /  24.1km/h 66% 0.00in /  0mm 469 W/m2
10:04 55.7 °F /  13.2 °C 44.7 °F /  7.1 °C 30.33in /  1027hPa NW 5.1mph /  8.2km/h 15mph /  24.1km/h 66.5% 0.00in /  0mm 478 W/m2
10:09 55.7 °F /  13.2 °C 44.4 °F /  6.9 °C 30.33in /  1027hPa NNW 4.4mph /  7.1km/h 13mph /  20.9km/h 65.7% 0.00in /  0mm 457 W/m2
10:14 56.2 °F /  13.4 °C 44.8 °F /  7.1 °C 30.33in /  1027hPa NW 3.5mph /  5.6km/h 10mph /  16.1km/h 65.4% 0.00in /  0mm 510 W/m2
10:19 56.8 °F /  13.8 °C 44.9 °F /  7.2 °C 30.33in /  1027hPa North 5mph /  8km/h 11mph /  17.7km/h 64.5% 0.00in /  0mm 527 W/m2
10:24 56.7 °F /  13.7 °C 44.9 °F /  7.2 °C 30.33in /  1027hPa NNW 5.3mph /  8.5km/h 13mph /  20.9km/h 64.8% 0.00in /  0mm 615 W/m2
10:29 56.1 °F /  13.4 °C 45.9 °F /  7.7 °C 30.33in /  1027hPa NW 4.8mph /  7.7km/h 13mph /  20.9km/h 68.6% 0.00in /  0mm 584 W/m2
10:34 56 °F /  13.3 °C 46 °F /  7.8 °C 30.34in /  1027.3hPa North 4.5mph /  7.2km/h 10mph /  16.1km/h 69.3% 0.00in /  0mm 635 W/m2
10:39 56.9 °F /  13.8 °C 46.8 °F /  8.2 °C 30.34in /  1027.3hPa NNW 7.5mph /  12.1km/h 13mph /  20.9km/h 68.8% 0.00in /  0mm 691 W/m2
10:44 56.7 °F /  13.7 °C 46.3 °F /  7.9 °C 30.34in /  1027.3hPa NW 5.2mph /  8.4km/h 13mph /  20.9km/h 68.2% 0.00in /  0mm 643 W/m2
10:49 56.9 °F /  13.8 °C 46.7 °F /  8.2 °C 30.34in /  1027.3hPa WNW 4.8mph /  7.7km/h 12mph /  19.3km/h 68.8% 0.00in /  0mm 643 W/m2
10:54 57.7 °F /  14.3 °C 47.1 °F /  8.4 °C 30.34in /  1027.3hPa NW 4.2mph /  6.8km/h 11mph /  17.7km/h 67.6% 0.00in /  0mm 715 W/m2
10:59 58.3 °F /  14.6 °C 47.3 °F /  8.5 °C 30.34in /  1027.3hPa NNW 5mph /  8km/h 11mph /  17.7km/h 66.9% 0.00in /  0mm 735 W/m2
11:04 57.9 °F /  14.4 °C 46.8 °F /  8.2 °C 30.34in /  1027.3hPa NW 5.4mph /  8.7km/h 12mph /  19.3km/h 66.7% 0.00in /  0mm 770 W/m2
11:09 58.1 °F /  14.5 °C 46.8 °F /  8.2 °C 30.34in /  1027.3hPa WNW 5.1mph /  8.2km/h 10mph /  16.1km/h 66.3% 0.00in /  0mm 807 W/m2
11:14 58.6 °F /  14.8 °C 47.2 °F /  8.4 °C 30.35in /  1027.7hPa NW 4.7mph /  7.6km/h 12mph /  19.3km/h 65.7% 0.00in /  0mm 761 W/m2
11:19 57.7 °F /  14.3 °C 46.6 °F /  8.1 °C 30.35in /  1027.7hPa NNW 6.1mph /  9.8km/h 12mph /  19.3km/h 66.3% 0.00in /  0mm 200 W/m2
11:24 57.1 °F /  13.9 °C 46.5 °F /  8.1 °C 30.35in /  1027.7hPa NNW 3.9mph /  6.3km/h 10mph /  16.1km/h 67.4% 0.00in /  0mm 274 W/m2
11:29 57.2 °F /  14 °C 46.9 °F /  8.3 °C 30.35in /  1027.7hPa NNW 4.4mph /  7.1km/h 8mph /  12.9km/h 68.4% 0.00in /  0mm 176 W/m2
11:34 56.9 °F /  13.8 °C 46.5 °F /  8.1 °C 30.35in /  1027.7hPa NW 7.8mph /  12.6km/h 13mph /  20.9km/h 68.1% 0.00in /  0mm 221 W/m2
11:39 56.8 °F /  13.8 °C 46.4 °F /  8 °C 30.35in /  1027.7hPa NW 7.8mph /  12.6km/h 14mph /  22.5km/h 68.4% 0.00in /  0mm 287 W/m2
11:44 57.4 °F /  14.1 °C 46.9 °F /  8.3 °C 30.35in /  1027.7hPa NW 3.9mph /  6.3km/h 11mph /  17.7km/h 68% 0.00in /  0mm 425 W/m2
11:49 57.9 °F /  14.4 °C 46.9 °F /  8.3 °C 30.35in /  1027.7hPa NW 6mph /  9.7km/h 12mph /  19.3km/h 66.9% 0.00in /  0mm 949 W/m2
11:54 58.1 °F /  14.5 °C 46.7 °F /  8.2 °C 30.35in /  1027.7hPa NNW 6.8mph /  10.9km/h 12mph /  19.3km/h 65.9% 0.00in /  0mm 949 W/m2
11:59 57.8 °F /  14.3 °C 46.6 °F /  8.1 °C 30.35in /  1027.7hPa NW 8.2mph /  13.2km/h 14mph /  22.5km/h 66.1% 0.00in /  0mm 308 W/m2
12:04 57.7 °F /  14.3 °C 46.3 °F /  7.9 °C 30.35in /  1027.7hPa North 6.4mph /  10.3km/h 14mph /  22.5km/h 66% 0.00in /  0mm 243 W/m2
12:09 57.7 °F /  14.3 °C 46.8 °F /  8.2 °C 30.35in /  1027.7hPa North 6mph /  9.7km/h 14mph /  22.5km/h 66.8% 0.00in /  0mm 306 W/m2
12:14 58.1 °F /  14.5 °C 47.1 °F /  8.4 °C 30.35in /  1027.7hPa NW 5.8mph /  9.3km/h 14mph /  22.5km/h 66.8% 0.00in /  0mm 747 W/m2
12:19 58.6 °F /  14.8 °C 46.9 °F /  8.3 °C 30.35in /  1027.7hPa NNW 6.8mph /  10.9km/h 13mph /  20.9km/h 65% 0.00in /  0mm 823 W/m2
12:24 58.6 °F /  14.8 °C 46.8 °F /  8.2 °C 30.35in /  1027.7hPa NW 5.9mph /  9.5km/h 13mph /  20.9km/h 64.7% 0.00in /  0mm 823 W/m2
12:29 58.6 °F /  14.8 °C 46.9 °F /  8.3 °C 30.35in /  1027.7hPa WNW 5.8mph /  9.3km/h 11mph /  17.7km/h 65% 0.00in /  0mm 492 W/m2
12:34 58.8 °F /  14.9 °C 47.4 °F /  8.6 °C 30.35in /  1027.7hPa WNW 4.6mph /  7.4km/h 9mph /  14.5km/h 65.6% 0.00in /  0mm 492 W/m2
12:39 59.4 °F /  15.2 °C 47.4 °F /  8.6 °C 30.35in /  1027.7hPa NNW 4.5mph /  7.2km/h 11mph /  17.7km/h 64.5% 0.00in /  0mm 362 W/m2
12:44 59.6 °F /  15.3 °C 47.1 °F /  8.4 °C 30.35in /  1027.7hPa North 3mph /  4.8km/h 9mph /  14.5km/h 63.3% 0.00in /  0mm 422 W/m2
12:49 59.6 °F /  15.3 °C 46.7 °F /  8.2 °C 30.35in /  1027.7hPa NNW 7.9mph /  12.7km/h 14mph /  22.5km/h 62.2% 0.00in /  0mm 306 W/m2
12:54 59.3 °F /  15.2 °C 46.7 °F /  8.2 °C 30.35in /  1027.7hPa WNW 3.7mph /  6km/h 14mph /  22.5km/h 63% 0.00in /  0mm 325 W/m2
12:59 59.3 °F /  15.2 °C 46.5 °F /  8.1 °C 30.35in /  1027.7hPa North 4.7mph /  7.6km/h 12mph /  19.3km/h 62.5% 0.00in /  0mm 292 W/m2
13:04 59.3 °F /  15.2 °C 46.7 °F /  8.2 °C 30.35in /  1027.7hPa NNW 3.4mph /  5.5km/h 8mph /  12.9km/h 63.2% 0.00in /  0mm 234 W/m2
13:09 59 °F /  15 °C 46.3 °F /  7.9 °C 30.36in /  1028hPa NW 5.9mph /  9.5km/h 13mph /  20.9km/h 62.9% 0.00in /  0mm 181 W/m2
13:14 58.6 °F /  14.8 °C 46.2 °F /  7.9 °C 30.35in /  1027.7hPa WNW 4.2mph /  6.8km/h 10mph /  16.1km/h 63.3% 0.00in /  0mm 241 W/m2
13:19 58.9 °F /  14.9 °C 47 °F /  8.3 °C 30.35in /  1027.7hPa WNW 3.3mph /  5.3km/h 7mph /  11.3km/h 64.5% 0.00in /  0mm 294 W/m2
13:24 58.9 °F /  14.9 °C 46.5 °F /  8.1 °C 30.36in /  1028hPa WNW 5.1mph /  8.2km/h 9mph /  14.5km/h 63.4% 0.00in /  0mm 172 W/m2
13:29 58.7 °F /  14.8 °C 46.5 °F /  8.1 °C 30.36in /  1028hPa NNW 5.5mph /  8.9km/h 9mph /  14.5km/h 63.7% 0.00in /  0mm 244 W/m2
13:34 58.5 °F /  14.7 °C 46.4 °F /  8 °C 30.36in /  1028hPa NW 6.7mph /  10.8km/h 11mph /  17.7km/h 64% 0.00in /  0mm 455 W/m2
13:39 58.7 °F /  14.8 °C 46.7 °F /  8.2 °C 30.36in /  1028hPa NW 5.5mph /  8.9km/h 11mph /  17.7km/h 64.2% 0.00in /  0mm 455 W/m2
13:44 59 °F /  15 °C 46.7 °F /  8.2 °C 30.35in /  1027.7hPa NW 4.8mph /  7.7km/h 9mph /  14.5km/h 63.7% 0.00in /  0mm 401 W/m2
13:49 59.3 °F /  15.2 °C 46.7 °F /  8.2 °C 30.35in /  1027.7hPa NNW 5.2mph /  8.4km/h 10mph /  16.1km/h 63% 0.00in /  0mm 403 W/m2
13:54 59.6 °F /  15.3 °C 46.9 °F /  8.3 °C 30.35in /  1027.7hPa NNW 5.8mph /  9.3km/h 10mph /  16.1km/h 62.7% 0.00in /  0mm 387 W/m2
13:59 59.7 °F /  15.4 °C 47.1 °F /  8.4 °C 30.35in /  1027.7hPa WNW 3.4mph /  5.5km/h 8mph /  12.9km/h 63.2% 0.00in /  0mm 325 W/m2
14:04 59.7 °F /  15.4 °C 46.9 °F /  8.3 °C 30.35in /  1027.7hPa NW 7.4mph /  11.9km/h 11mph /  17.7km/h 62.4% 0.00in /  0mm 287 W/m2
14:09 59.5 °F /  15.3 °C 47 °F /  8.3 °C 30.35in /  1027.7hPa NW 6.1mph /  9.8km/h 11mph /  17.7km/h 63.1% 0.00in /  0mm 334 W/m2
14:14 59.5 °F /  15.3 °C 46.9 °F /  8.3 °C 30.35in /  1027.7hPa NW 6.3mph /  10.1km/h 13mph /  20.9km/h 62.9% 0.00in /  0mm 334 W/m2
14:19 59.6 °F /  15.3 °C 47.2 °F /  8.4 °C 30.35in /  1027.7hPa NW 5.8mph /  9.3km/h 13mph /  20.9km/h 63.6% 0.00in /  0mm 438 W/m2
14:24 59.9 °F /  15.5 °C 47.7 °F /  8.7 °C 30.35in /  1027.7hPa NW 7.5mph /  12.1km/h 14mph /  22.5km/h 64.1% 0.00in /  0mm 438 W/m2
14:29 59.7 °F /  15.4 °C 47.8 °F /  8.8 °C 30.35in /  1027.7hPa NW 5.8mph /  9.3km/h 11mph /  17.7km/h 64.5% 0.00in /  0mm 294 W/m2
14:34 59.6 °F /  15.3 °C 48.2 °F /  9 °C 30.36in /  1028hPa NW 7.3mph /  11.7km/h 15mph /  24.1km/h 65.9% 0.00in /  0mm 295 W/m2
14:39 59.6 °F /  15.3 °C 48.3 °F /  9.1 °C 30.35in /  1027.7hPa NW 4.9mph /  7.9km/h 13mph /  20.9km/h 66% 0.00in /  0mm 415 W/m2
14:44 60.1 °F /  15.6 °C 48.4 °F /  9.1 °C 30.35in /  1027.7hPa North 3mph /  4.8km/h 11mph /  17.7km/h 65.2% 0.00in /  0mm 446 W/m2
14:49 61 °F /  16.1 °C 48.7 °F /  9.3 °C 30.35in /  1027.7hPa NW 5.7mph /  9.2km/h 12mph /  19.3km/h 64% 0.00in /  0mm 446 W/m2
14:54 60.4 °F /  15.8 °C 48.5 °F /  9.2 °C 30.35in /  1027.7hPa NNW 6.1mph /  9.8km/h 12mph /  19.3km/h 64.7% 0.00in /  0mm 341 W/m2
14:59 60.1 °F /  15.6 °C 48.1 °F /  8.9 °C 30.35in /  1027.7hPa NNW 6.4mph /  10.3km/h 12mph /  19.3km/h 64.5% 0.00in /  0mm 849 W/m2
15:04 61.1 °F /  16.2 °C 48.5 °F /  9.2 °C 30.35in /  1027.7hPa NW 5.6mph /  9km/h 14mph /  22.5km/h 63.3% 0.00in /  0mm 809 W/m2
15:09 61.9 °F /  16.6 °C 48.4 °F /  9.1 °C 30.35in /  1027.7hPa NNW 5.9mph /  9.5km/h 12mph /  19.3km/h 61.1% 0.00in /  0mm 814 W/m2
15:14 62 °F /  16.7 °C 48.4 °F /  9.1 °C 30.35in /  1027.7hPa NNW 7.5mph /  12.1km/h 12mph /  19.3km/h 61.2% 0.00in /  0mm 810 W/m2
15:19 62 °F /  16.7 °C 48.1 °F /  8.9 °C 30.35in /  1027.7hPa NW 6.2mph /  10km/h 12mph /  19.3km/h 60.5% 0.00in /  0mm 758 W/m2
15:24 61.9 °F /  16.6 °C 48.1 °F /  8.9 °C 30.35in /  1027.7hPa NW 6.5mph /  10.5km/h 13mph /  20.9km/h 60.6% 0.00in /  0mm 694 W/m2
15:29 61.9 °F /  16.6 °C 48.2 °F /  9 °C 30.35in /  1027.7hPa NW 8.5mph /  13.7km/h 17mph /  27.4km/h 60.8% 0.00in /  0mm 691 W/m2
15:34 61.5 °F /  16.4 °C 47.7 °F /  8.7 °C 30.35in /  1027.7hPa NNW 5mph /  8km/h 17mph /  27.4km/h 60.3% 0.00in /  0mm 281 W/m2
15:39 61.2 °F /  16.2 °C 47.8 °F /  8.8 °C 30.35in /  1027.7hPa NNW 4.3mph /  6.9km/h 8mph /  12.9km/h 61.4% 0.00in /  0mm 313 W/m2
15:44 61.2 °F /  16.2 °C 48.2 °F /  9 °C 30.34in /  1027.3hPa NW 6.7mph /  10.8km/h 11mph /  17.7km/h 62.4% 0.00in /  0mm 229 W/m2
15:49 61.2 °F /  16.2 °C 48.4 °F /  9.1 °C 30.35in /  1027.7hPa WNW 2.7mph /  4.3km/h 7mph /  11.3km/h 63% 0.00in /  0mm 167 W/m2
15:54 61.1 °F /  16.2 °C 48.4 °F /  9.1 °C 30.35in /  1027.7hPa NW 3.3mph /  5.3km/h 8mph /  12.9km/h 63.1% 0.00in /  0mm 139 W/m2
15:59 61 °F /  16.1 °C 48.5 °F /  9.2 °C 30.35in /  1027.7hPa North 4.7mph /  7.6km/h 9mph /  14.5km/h 63.4% 0.00in /  0mm 135 W/m2
16:04 60.7 °F /  15.9 °C 48.2 °F /  9 °C 30.35in /  1027.7hPa North 3.2mph /  5.1km/h 8mph /  12.9km/h 63.4% 0.00in /  0mm 127 W/m2
16:09 60.5 °F /  15.8 °C 47.9 °F /  8.8 °C 30.34in /  1027.3hPa NNW 3.3mph /  5.3km/h 9mph /  14.5km/h 63.1% 0.00in /  0mm 148 W/m2
16:14 60.5 °F /  15.8 °C 47.9 °F /  8.8 °C 30.34in /  1027.3hPa NNW 2mph /  3.2km/h 7mph /  11.3km/h 63% 0.00in /  0mm 174 W/m2
16:19 61 °F /  16.1 °C 47.9 °F /  8.8 °C 30.34in /  1027.3hPa NNW 3.5mph /  5.6km/h 8mph /  12.9km/h 62.1% 0.00in /  0mm 174 W/m2
16:24 61.2 °F /  16.2 °C 47.6 °F /  8.7 °C 30.34in /  1027.3hPa NNW 5.1mph /  8.2km/h 11mph /  17.7km/h 61% 0.00in /  0mm 114 W/m2
16:29 61.2 °F /  16.2 °C 47.5 °F /  8.6 °C 30.34in /  1027.3hPa NW 5.6mph /  9km/h 9mph /  14.5km/h 60.8% 0.00in /  0mm 513 W/m2
16:34 61.5 °F /  16.4 °C 47.9 °F /  8.8 °C 30.34in /  1027.3hPa WNW 6.5mph /  10.5km/h 11mph /  17.7km/h 61% 0.00in /  0mm 517 W/m2
16:39 62.2 °F /  16.8 °C 48.3 °F /  9.1 °C 30.34in /  1027.3hPa NW 5.9mph /  9.5km/h 10mph /  16.1km/h 60.3% 0.00in /  0mm 559 W/m2
16:44 62.5 °F /  16.9 °C 47.7 °F /  8.7 °C 30.34in /  1027.3hPa NW 6.8mph /  10.9km/h 12mph /  19.3km/h 58.5% 0.00in /  0mm 552 W/m2
16:49 62.7 °F /  17.1 °C 47.4 °F /  8.6 °C 30.34in /  1027.3hPa NNW 4.9mph /  7.9km/h 12mph /  19.3km/h 57.3% 0.00in /  0mm 476 W/m2
16:54 62.9 °F /  17.2 °C 47.5 °F /  8.6 °C 30.34in /  1027.3hPa North 3.5mph /  5.6km/h 10mph /  16.1km/h 57.2% 0.00in /  0mm 466 W/m2
16:59 63.7 °F /  17.6 °C 47.8 °F /  8.8 °C 30.34in /  1027.3hPa NW 4.1mph /  6.6km/h 8mph /  12.9km/h 56.2% 0.00in /  0mm 457 W/m2
17:04 63.7 °F /  17.6 °C 47.3 °F /  8.5 °C 30.34in /  1027.3hPa NW 6.5mph /  10.5km/h 11mph /  17.7km/h 55.1% 0.00in /  0mm 492 W/m2
17:09 63.3 °F /  17.4 °C 47 °F /  8.3 °C 30.34in /  1027.3hPa NW 5.9mph /  9.5km/h 11mph /  17.7km/h 55.4% 0.00in /  0mm 469 W/m2
17:14 63 °F /  17.2 °C 47 °F /  8.3 °C 30.34in /  1027.3hPa WNW 3.4mph /  5.5km/h 11mph /  17.7km/h 56.2% 0.00in /  0mm 302 W/m2
17:19 62.7 °F /  17.1 °C 47 °F /  8.3 °C 30.35in /  1027.7hPa NW 3.8mph /  6.1km/h 9mph /  14.5km/h 56.5% 0.00in /  0mm 141 W/m2
17:24 62.3 °F /  16.8 °C 46.9 °F /  8.3 °C 30.35in /  1027.7hPa West 4.2mph /  6.8km/h 9mph /  14.5km/h 57.1% 0.00in /  0mm 149 W/m2
17:29 62.4 °F /  16.9 °C 47.1 °F /  8.4 °C 30.35in /  1027.7hPa WNW 2.5mph /  4km/h 7mph /  11.3km/h 57.3% 0.00in /  0mm 413 W/m2
17:34 62.9 °F /  17.2 °C 47.4 °F /  8.6 °C 30.35in /  1027.7hPa NW 6mph /  9.7km/h 13mph /  20.9km/h 57.1% 0.00in /  0mm 396 W/m2
17:39 62.3 °F /  16.8 °C 47.4 °F /  8.6 °C 30.35in /  1027.7hPa NW 5.7mph /  9.2km/h 10mph /  16.1km/h 58% 0.00in /  0mm 371 W/m2
17:44 62.3 °F /  16.8 °C 47.4 °F /  8.6 °C 30.35in /  1027.7hPa NW 5.4mph /  8.7km/h 11mph /  17.7km/h 58% 0.00in /  0mm 371 W/m2
17:49 62.4 °F /  16.9 °C 47 °F /  8.3 °C 30.35in /  1027.7hPa NW 3.9mph /  6.3km/h 10mph /  16.1km/h 57.2% 0.00in /  0mm 295 W/m2
17:54 62.8 °F /  17.1 °C 47.7 °F /  8.7 °C 30.34in /  1027.3hPa NNW 2.6mph /  4.2km/h 8mph /  12.9km/h 57.8% 0.00in /  0mm 336 W/m2
17:59 62.7 °F /  17.1 °C 47.6 °F /  8.7 °C 30.34in /  1027.3hPa NW 5.1mph /  8.2km/h 9mph /  14.5km/h 57.8% 0.00in /  0mm 279 W/m2
18:04 63 °F /  17.2 °C 48.1 °F /  8.9 °C 30.34in /  1027.3hPa NW 3.8mph /  6.1km/h 11mph /  17.7km/h 58.2% 0.00in /  0mm 278 W/m2
18:09 63.1 °F /  17.3 °C 47.6 °F /  8.7 °C 30.34in /  1027.3hPa WNW 4.9mph /  7.9km/h 11mph /  17.7km/h 57% 0.00in /  0mm 258 W/m2
18:14 62.9 °F /  17.2 °C 47.4 °F /  8.6 °C 30.34in /  1027.3hPa NW 5.5mph /  8.9km/h 10mph /  16.1km/h 57.1% 0.00in /  0mm 216 W/m2
18:19 62.3 °F /  16.8 °C 47.1 °F /  8.4 °C 30.34in /  1027.3hPa NW 6.8mph /  10.9km/h 11mph /  17.7km/h 57.4% 0.00in /  0mm 207 W/m2
18:24 62 °F /  16.7 °C 47.4 °F /  8.6 °C 30.34in /  1027.3hPa NW 3.7mph /  6km/h 9mph /  14.5km/h 58.8% 0.00in /  0mm 165 W/m2
18:29 61.8 °F /  16.6 °C 47.6 °F /  8.7 °C 30.34in /  1027.3hPa NNW 3mph /  4.8km/h 8mph /  12.9km/h 59.7% 0.00in /  0mm 171 W/m2
18:34 62.1 °F /  16.7 °C 47.9 °F /  8.8 °C 30.34in /  1027.3hPa NW 3.3mph /  5.3km/h 7mph /  11.3km/h 59.8% 0.00in /  0mm 165 W/m2
18:39 62.1 °F /  16.7 °C 47.9 °F /  8.8 °C 30.35in /  1027.7hPa NW 5.3mph /  8.5km/h 11mph /  17.7km/h 59.7% 0.00in /  0mm 142 W/m2
18:44 62.1 °F /  16.7 °C 48 °F /  8.9 °C 30.35in /  1027.7hPa WNW 3.6mph /  5.8km/h 11mph /  17.7km/h 60% 0.00in /  0mm 111 W/m2
18:49 61.8 °F /  16.6 °C 47.8 °F /  8.8 °C 30.35in /  1027.7hPa NW 4.3mph /  6.9km/h 10mph /  16.1km/h 60% 0.00in /  0mm 90 W/m2
18:54 61.6 °F /  16.4 °C 47.6 °F /  8.7 °C 30.35in /  1027.7hPa NW 3.3mph /  5.3km/h 8mph /  12.9km/h 60% 0.00in /  0mm 77 W/m2
18:59 61.4 °F /  16.3 °C 47.2 °F /  8.4 °C 30.35in /  1027.7hPa NW 4.3mph /  6.9km/h 9mph /  14.5km/h 59.5% 0.00in /  0mm 72 W/m2
19:04 61.2 °F /  16.2 °C 47.1 °F /  8.4 °C 30.35in /  1027.7hPa NW 3.5mph /  5.6km/h 8mph /  12.9km/h 60% 0.00in /  0mm 62 W/m2
19:09 61 °F /  16.1 °C 47.1 °F /  8.4 °C 30.35in /  1027.7hPa NW 3.6mph /  5.8km/h 7mph /  11.3km/h 60.3% 0.00in /  0mm 53 W/m2
19:14 60.7 °F /  15.9 °C 47.2 °F /  8.4 °C 30.35in /  1027.7hPa NW 3mph /  4.8km/h 7mph /  11.3km/h 61% 0.00in /  0mm 40 W/m2
19:19 60.4 °F /  15.8 °C 46.9 °F /  8.3 °C 30.35in /  1027.7hPa NW 2.5mph /  4km/h 5mph /  8km/h 61.1% 0.00in /  0mm 32 W/m2
19:24 60.1 °F /  15.6 °C 46.9 °F /  8.3 °C 30.35in /  1027.7hPa NW 2.5mph /  4km/h 5mph /  8km/h 61.8% 0.00in /  0mm 25 W/m2
19:29 59.6 °F /  15.3 °C 46.8 °F /  8.2 °C 30.35in /  1027.7hPa NW 1.2mph /  1.9km/h 5mph /  8km/h 62.3% 0.00in /  0mm 18 W/m2
19:34 59.3 °F /  15.2 °C 46.7 °F /  8.2 °C 30.35in /  1027.7hPa NW 1.6mph /  2.6km/h 4mph /  6.4km/h 63% 0.00in /  0mm 14 W/m2
19:39 58.9 °F /  14.9 °C 46.5 °F /  8.1 °C 30.35in /  1027.7hPa NW 2mph /  3.2km/h 4mph /  6.4km/h 63.5% 0.00in /  0mm 11 W/m2
19:44 58.6 °F /  14.8 °C 46.9 °F /  8.3 °C 30.35in /  1027.7hPa NW 0.4mph /  0.6km/h 3mph /  4.8km/h 64.9% 0.00in /  0mm 7 W/m2
19:49 58.5 °F /  14.7 °C 47 °F /  8.3 °C 30.35in /  1027.7hPa Calm   1mph /  1.6km/h 65.6% 0.00in /  0mm 5 W/m2
19:54 58.1 °F /  14.5 °C 47.2 °F /  8.4 °C 30.35in /  1027.7hPa NW 0.1mph /  0.2km/h 1mph /  1.6km/h 67.1% 0.00in /  0mm 0 W/m2
19:59 57.6 °F /  14.2 °C 47.2 °F /  8.4 °C 30.35in /  1027.7hPa NW 0.7mph /  1.1km/h 2mph /  3.2km/h 68.1% 0.00in /  0mm 0 W/m2
20:04 57.1 °F /  13.9 °C 47 °F /  8.3 °C 30.36in /  1028hPa NW 0.3mph /  0.5km/h 2mph /  3.2km/h 69% 0.00in /  0mm 0 W/m2
20:09 56.8 °F /  13.8 °C 46.9 °F /  8.3 °C 30.36in /  1028hPa Calm     69.6% 0.00in /  0mm 0 W/m2
20:14 56.6 °F /  13.7 °C 46.8 °F /  8.2 °C 30.35in /  1027.7hPa Calm     70% 0.00in /  0mm 0 W/m2
20:19 56.3 °F /  13.5 °C 46.9 °F /  8.3 °C 30.36in /  1028hPa Calm     70.7% 0.00in /  0mm 0 W/m2
20:24 56.1 °F /  13.4 °C 46.9 °F /  8.3 °C 30.35in /  1027.7hPa Calm     71.2% 0.00in /  0mm 0 W/m2
20:29 55.9 °F /  13.3 °C 47 °F /  8.3 °C 30.36in /  1028hPa Calm     72% 0.00in /  0mm 0 W/m2
20:34 55.6 °F /  13.1 °C 46.7 °F /  8.2 °C 30.36in /  1028hPa Calm   1mph /  1.6km/h 72% 0.00in /  0mm 0 W/m2
20:39 55 °F /  12.8 °C 46.4 °F /  8 °C 30.36in /  1028hPa NW 0.1mph /  0.2km/h 1mph /  1.6km/h 72.6% 0.00in /  0mm 0 W/m2
20:44 54.6 °F /  12.6 °C 46.1 °F /  7.8 °C 30.36in /  1028hPa NW 0.2mph /  0.3km/h 1mph /  1.6km/h 73% 0.00in /  0mm 0 W/m2
20:49 54.3 °F /  12.4 °C 46 °F /  7.8 °C 30.36in /  1028hPa Calm   1mph /  1.6km/h 73.2% 0.00in /  0mm 0 W/m2
20:54 54.2 °F /  12.3 °C 46.1 °F /  7.8 °C 30.36in /  1028hPa NW 0.2mph /  0.3km/h 1mph /  1.6km/h 74% 0.00in /  0mm 0 W/m2
20:59 54 °F /  12.2 °C 45.9 °F /  7.7 °C 30.36in /  1028hPa NW 0.1mph /  0.2km/h 1mph /  1.6km/h 74% 0.00in /  0mm 0 W/m2
21:04 53.6 °F /  12 °C 45.5 °F /  7.5 °C 30.36in /  1028hPa Calm   1mph /  1.6km/h 74% 0.00in /  0mm 0 W/m2
21:09 53.3 °F /  11.8 °C 45.3 °F /  7.4 °C 30.36in /  1028hPa NW 0.8mph /  1.3km/h 3mph /  4.8km/h 74.2% 0.00in /  0mm 0 W/m2
21:14 53 °F /  11.7 °C 45.2 °F /  7.3 °C 30.36in /  1028hPa Calm   2mph /  3.2km/h 75% 0.00in /  0mm 0 W/m2
21:19 52.5 °F /  11.4 °C 44.8 °F /  7.1 °C 30.36in /  1028hPa NW 0.3mph /  0.5km/h 2mph /  3.2km/h 75% 0.00in /  0mm 0 W/m2
21:24 52.3 °F /  11.3 °C 44.6 °F /  7 °C 30.36in /  1028hPa Calm   2mph /  3.2km/h 75% 0.00in /  0mm 0 W/m2
21:29 52.2 °F /  11.2 °C 44.4 °F /  6.9 °C 30.36in /  1028hPa NW 0.1mph /  0.2km/h 1mph /  1.6km/h 75% 0.00in /  0mm 0 W/m2
21:34 51.7 °F /  10.9 °C 44.2 °F /  6.8 °C 30.36in /  1028hPa NW 0.8mph /  1.3km/h 3mph /  4.8km/h 75.6% 0.00in /  0mm 0 W/m2
21:39 51.4 °F /  10.8 °C 44.1 °F /  6.7 °C 30.36in /  1028hPa NW 2.3mph /  3.7km/h 3mph /  4.8km/h 76% 0.00in /  0mm 0 W/m2
21:44 51.5 °F /  10.8 °C 44.2 °F /  6.8 °C 30.36in /  1028hPa NW 1.8mph /  2.9km/h 3mph /  4.8km/h 76.3% 0.00in /  0mm 0 W/m2
21:49 51.6 °F /  10.9 °C 44.6 °F /  7 °C 30.36in /  1028hPa Calm   3mph /  4.8km/h 77% 0.00in /  0mm 0 W/m2
21:54 51.6 °F /  10.9 °C 44.6 °F /  7 °C 30.36in /  1028hPa Calm     77% 0.00in /  0mm 0 W/m2
21:59 51.4 °F /  10.8 °C 44.8 °F /  7.1 °C 30.36in /  1028hPa Calm     77.9% 0.00in /  0mm 0 W/m2
22:04 51.4 °F /  10.8 °C 44.8 °F /  7.1 °C 30.36in /  1028hPa Calm     78% 0.00in /  0mm 0 W/m2
22:09 51.4 °F /  10.8 °C 45 °F /  7.2 °C 30.36in /  1028hPa Calm     78.7% 0.00in /  0mm 0 W/m2
22:14 51.4 °F /  10.8 °C 45.1 °F /  7.3 °C 30.35in /  1027.7hPa Calm     79% 0.00in /  0mm 0 W/m2
22:19 51 °F /  10.6 °C 44.7 °F /  7.1 °C 30.35in /  1027.7hPa Calm     79% 0.00in /  0mm 0 W/m2
22:24 50.8 °F /  10.4 °C 44.9 °F /  7.2 °C 30.36in /  1028hPa Calm     79.9% 0.00in /  0mm 0 W/m2
22:29 50.6 °F /  10.3 °C 44.9 °F /  7.2 °C 30.36in /  1028hPa Calm     80.5% 0.00in /  0mm 0 W/m2
22:34 50.5 °F /  10.3 °C 45 °F /  7.2 °C 30.35in /  1027.7hPa NW 0.3mph /  0.5km/h 2mph /  3.2km/h 81% 0.00in /  0mm 0 W/m2
22:39 50.5 °F /  10.3 °C 45 °F /  7.2 °C 30.35in /  1027.7hPa NW 0.2mph /  0.3km/h 2mph /  3.2km/h 81% 0.00in /  0mm 0 W/m2
22:44 50.5 °F /  10.3 °C 45.2 °F /  7.3 °C 30.35in /  1027.7hPa Calm   2mph /  3.2km/h 82% 0.00in /  0mm 0 W/m2
22:49 50.3 °F /  10.2 °C 45 °F /  7.2 °C 30.36in /  1028hPa NW 1.7mph /  2.7km/h 3mph /  4.8km/h 82% 0.00in /  0mm 0 W/m2
22:54 50.3 °F /  10.2 °C 45 °F /  7.2 °C 30.36in /  1028hPa NW 1.9mph /  3.1km/h 4mph /  6.4km/h 82% 0.00in /  0mm 0 W/m2
22:59 50.2 °F /  10.1 °C 45 °F /  7.2 °C 30.35in /  1027.7hPa NW 0.1mph /  0.2km/h 3mph /  4.8km/h 82% 0.00in /  0mm 0 W/m2
23:04 49.9 °F /  9.9 °C 44.7 °F /  7.1 °C 30.35in /  1027.7hPa Calm   1mph /  1.6km/h 82% 0.00in /  0mm 0 W/m2
23:09 49.6 °F /  9.8 °C 44.7 °F /  7.1 °C 30.35in /  1027.7hPa Calm     82.7% 0.00in /  0mm 0 W/m2
23:14 49.5 °F /  9.7 °C 44.6 °F /  7 °C 30.35in /  1027.7hPa Calm     83% 0.00in /  0mm 0 W/m2
23:19 49.5 °F /  9.7 °C 44.6 °F /  7 °C 30.35in /  1027.7hPa Calm     83% 0.00in /  0mm 0 W/m2
23:24 49.4 °F /  9.7 °C 44.5 °F /  6.9 °C 30.35in /  1027.7hPa Calm     83% 0.00in /  0mm 0 W/m2
23:29 49.2 °F /  9.6 °C 44.3 °F /  6.8 °C 30.35in /  1027.7hPa Calm     83.3% 0.00in /  0mm 0 W/m2
23:34 49.1 °F /  9.5 °C 44.4 °F /  6.9 °C 30.35in /  1027.7hPa Calm     84% 0.00in /  0mm 0 W/m2
23:39 49 °F /  9.4 °C 44.3 °F /  6.8 °C 30.35in /  1027.7hPa NW 0.4mph /  0.6km/h 2mph /  3.2km/h 84% 0.00in /  0mm 0 W/m2
23:44 48.9 °F /  9.4 °C 44.5 °F /  6.9 °C 30.35in /  1027.7hPa Calm   2mph /  3.2km/h 84.7% 0.00in /  0mm 0 W/m2
23:49 48.9 °F /  9.4 °C 44.6 °F /  7 °C 30.35in /  1027.7hPa NW 0.5mph /  0.8km/h 2mph /  3.2km/h 85% 0.00in /  0mm 0 W/m2
23:54 48.9 °F /  9.4 °C 44.6 °F /  7 °C 30.34in /  1027.3hPa Calm   2mph /  3.2km/h 85% 0.00in /  0mm 0 W/m2
23:59 48.9 °F /  9.4 °C 44.6 °F /  7 °C 30.34in /  1027.3hPa Calm     85% 0.00in /  0mm 0 W/m2
Bath Spa Weather
Compliments of Weather Underground - 2 mb